createdAt,value
2022-11-23T00:00:13.432Z,1.45
2022-11-23T00:06:04.367Z,1.45
2022-11-23T00:11:36.068Z,1.45
2022-11-23T00:17:07.014Z,1.43
2022-11-23T00:22:38.175Z,1.44
2022-11-23T00:28:09.400Z,1.44
2022-11-23T00:33:42.094Z,1.41
2022-11-23T00:39:13.163Z,1.43
2022-11-23T00:44:45.594Z,1.43
2022-11-23T00:50:17.117Z,1.42
2022-11-23T00:55:53.182Z,1.42
2022-11-23T01:01:26.552Z,1.43
2022-11-23T01:06:58.098Z,1.42
2022-11-23T01:12:30.119Z,1.44
2022-11-23T01:18:01.528Z,1.43
2022-11-23T01:23:32.649Z,1.43
2022-11-23T01:29:04.016Z,1.42
2022-11-23T01:34:35.169Z,1.42
2022-11-23T01:40:07.222Z,1.42
2022-11-23T01:45:41.339Z,1.42
2022-11-23T01:51:18.350Z,1.41
2022-11-23T01:57:23.434Z,1.43
2022-11-23T02:02:57.233Z,1.44
2022-11-23T02:08:28.857Z,1.44
2022-11-23T02:14:00.455Z,1.46
2022-11-23T02:19:56.309Z,1.48
2022-11-23T02:25:45.576Z,1.49
2022-11-23T02:31:16.644Z,1.46
2022-11-23T02:36:51.987Z,1.49
2022-11-23T02:42:23.839Z,1.48
2022-11-23T02:47:55.197Z,1.46
2022-11-23T02:53:26.442Z,1.47
2022-11-23T02:58:58.764Z,1.48
2022-11-23T03:04:30.003Z,1.46
2022-11-23T03:10:01.709Z,1.47
2022-11-23T03:15:33.195Z,1.49
2022-11-23T03:21:06.321Z,1.50
2022-11-23T03:26:41.791Z,1.50
2022-11-23T03:32:14.463Z,1.51
2022-11-23T03:37:48.834Z,1.50
2022-11-23T03:43:20.385Z,1.50
2022-11-23T03:48:51.820Z,1.49
2022-11-23T03:54:22.838Z,1.50
2022-11-23T03:59:53.914Z,1.51
2022-11-23T04:05:28.007Z,1.52
2022-11-23T04:11:28.751Z,1.50
2022-11-23T04:17:00.325Z,1.51
2022-11-23T04:22:32.699Z,1.52
2022-11-23T04:28:04.062Z,1.53
2022-11-23T04:33:36.498Z,1.54
2022-11-23T04:39:08.692Z,1.53
2022-11-23T04:44:50.675Z,1.54
2022-11-23T04:50:23.133Z,1.54
2022-11-23T04:55:58.131Z,1.52
2022-11-23T05:01:30.005Z,1.54
2022-11-23T05:07:20.384Z,1.53
2022-11-23T05:12:58.343Z,1.54
2022-11-23T05:18:30.572Z,1.52
2022-11-23T05:24:03.016Z,1.54
2022-11-23T05:29:35.043Z,1.53
2022-11-23T05:35:08.715Z,1.54
2022-11-23T05:40:41.844Z,1.53
2022-11-23T05:46:13.643Z,1.52
2022-11-23T05:51:46.219Z,1.54
2022-11-23T05:57:22.627Z,1.52
2022-11-23T06:03:00.877Z,1.52
2022-11-23T06:08:34.265Z,1.53
2022-11-23T06:14:08.766Z,1.51
2022-11-23T06:19:43.593Z,1.51
2022-11-23T06:25:16.149Z,1.52
2022-11-23T06:31:04.183Z,1.51
2022-11-23T06:36:36.747Z,1.52
2022-11-23T06:42:31.262Z,1.53
2022-11-23T06:47:59.130Z,1.52
2022-11-23T06:53:31.547Z,1.51
2022-11-23T06:59:07.033Z,1.51
2022-11-23T07:04:38.662Z,1.51
2022-11-23T07:10:16.122Z,1.52
2022-11-23T07:15:50.283Z,1.51
2022-11-23T07:21:21.456Z,1.55
2022-11-23T07:26:53.788Z,1.58
2022-11-23T07:32:24.941Z,1.58
2022-11-23T07:37:56.293Z,1.61
2022-11-23T07:43:27.836Z,1.62
2022-11-23T07:49:02.416Z,1.63
2022-11-23T07:54:33.743Z,1.67
2022-11-23T08:00:05.791Z,1.68
2022-11-23T08:05:43.249Z,1.70
2022-11-23T08:11:19.000Z,1.72
2022-11-23T08:16:51.417Z,1.73
2022-11-23T08:22:22.862Z,1.74
2022-11-23T08:27:57.692Z,1.79
2022-11-23T08:33:28.942Z,1.81
2022-11-23T08:39:00.242Z,1.83
2022-11-23T08:44:31.922Z,1.83
2022-11-23T08:50:03.700Z,1.85
2022-11-23T08:55:34.762Z,1.88
2022-11-23T09:01:13.881Z,1.90
2022-11-23T09:06:45.007Z,1.91
2022-11-23T09:12:17.435Z,1.92
2022-11-23T09:17:48.634Z,1.94
2022-11-23T09:23:20.273Z,1.96
2022-11-23T09:28:51.758Z,1.98
2022-11-23T09:34:23.191Z,2.00
2022-11-23T09:39:54.029Z,2.01
2022-11-23T09:45:40.906Z,2.02
2022-11-23T09:51:17.865Z,2.05
2022-11-23T09:56:51.366Z,2.09
2022-11-23T10:02:29.069Z,2.11
2022-11-23T10:08:35.366Z,2.13
2022-11-23T10:14:15.673Z,2.16
2022-11-23T10:19:57.930Z,2.19
2022-11-23T10:25:38.733Z,2.24
2022-11-23T10:31:21.468Z,2.28
2022-11-23T10:36:52.866Z,2.32
2022-11-23T10:42:31.191Z,2.35
2022-11-23T10:48:02.191Z,2.38
2022-11-23T10:53:34.995Z,2.40
2022-11-23T10:59:06.018Z,2.43
2022-11-23T11:04:37.169Z,2.46
2022-11-23T11:10:32.211Z,2.49
2022-11-23T11:16:05.691Z,2.52
2022-11-23T11:21:41.906Z,2.55
2022-11-23T11:27:20.911Z,2.58
2022-11-23T11:33:15.539Z,2.62
2022-11-23T11:39:07.690Z,2.64
2022-11-23T11:44:41.522Z,2.68
2022-11-23T11:50:31.861Z,2.72
2022-11-23T11:56:28.297Z,2.75
2022-11-23T12:02:27.853Z,2.77
2022-11-23T12:08:18.214Z,2.82
2022-11-23T12:13:49.196Z,2.87
2022-11-23T12:19:53.281Z,2.88
2022-11-23T12:25:39.334Z,2.88
2022-11-23T12:31:27.996Z,2.89
2022-11-23T12:37:14.663Z,2.89
2022-11-23T12:43:01.856Z,2.91
2022-11-23T12:48:41.228Z,2.93
2022-11-23T12:54:32.906Z,2.95
2022-11-23T13:00:08.602Z,2.97
2022-11-23T13:06:13.799Z,3.00
2022-11-23T13:12:06.705Z,2.99
2022-11-23T13:17:49.408Z,3.00
2022-11-23T13:23:23.710Z,3.00
2022-11-23T13:28:59.504Z,3.03
2022-11-23T13:34:47.372Z,3.03
2022-11-23T13:40:42.314Z,3.04
2022-11-23T13:46:23.717Z,3.09
2022-11-23T13:52:06.817Z,3.12
2022-11-23T13:57:39.654Z,3.13
2022-11-23T14:03:51.021Z,3.14
2022-11-23T14:09:33.135Z,3.17
2022-11-23T14:15:14.399Z,3.20
2022-11-23T14:20:57.852Z,3.16
2022-11-23T14:27:23.731Z,3.19
2022-11-23T14:33:10.511Z,3.20
2022-11-23T14:38:52.371Z,3.15
2022-11-23T14:44:26.410Z,3.14
2022-11-23T14:49:58.106Z,3.14
2022-11-23T14:55:30.587Z,3.16
2022-11-23T15:01:02.380Z,3.15
2022-11-23T15:06:38.592Z,3.17
2022-11-23T15:12:41.761Z,3.17
2022-11-23T15:18:12.894Z,3.17
2022-11-23T15:24:02.154Z,3.15
2022-11-23T15:29:38.504Z,3.14
2022-11-23T15:35:14.829Z,3.13
2022-11-23T15:40:50.646Z,3.12
2022-11-23T15:46:30.585Z,3.12
2022-11-23T15:52:02.808Z,3.14
2022-11-23T15:57:34.335Z,3.12
2022-11-23T16:03:23.773Z,3.11
2022-11-23T16:08:54.803Z,3.12
2022-11-23T16:14:32.036Z,3.13
2022-11-23T16:20:05.268Z,3.13
2022-11-23T16:25:36.439Z,3.13
2022-11-23T16:31:29.510Z,3.14
2022-11-23T16:37:04.287Z,3.14
2022-11-23T16:42:35.520Z,3.15
2022-11-23T16:48:26.763Z,3.14
2022-11-23T16:54:15.230Z,3.13
2022-11-23T16:59:48.676Z,3.11
2022-11-23T17:05:21.349Z,3.10
2022-11-23T17:10:52.636Z,3.11
2022-11-23T17:16:25.146Z,3.08
2022-11-23T17:21:56.177Z,3.06
2022-11-23T17:27:27.617Z,3.04
2022-11-23T17:33:00.249Z,3.04
2022-11-23T17:38:31.124Z,3.04
2022-11-23T17:44:02.330Z,3.00
2022-11-23T17:49:33.868Z,2.98
2022-11-23T17:55:06.492Z,2.96
2022-11-23T18:00:38.533Z,2.95
2022-11-23T18:06:21.335Z,2.93
2022-11-23T18:11:52.688Z,2.91
2022-11-23T18:17:24.209Z,2.91
2022-11-23T18:22:55.196Z,2.88
2022-11-23T18:28:26.519Z,2.85
2022-11-23T18:33:57.694Z,2.83
2022-11-23T18:39:28.866Z,2.82
2022-11-23T18:45:01.314Z,2.80
2022-11-23T18:50:32.269Z,2.78
2022-11-23T18:56:04.428Z,2.75
2022-11-23T19:01:36.328Z,2.73
2022-11-23T19:07:07.310Z,2.71
2022-11-23T19:12:38.479Z,2.70
2022-11-23T19:18:09.779Z,2.70
2022-11-23T19:23:41.078Z,2.68
2022-11-23T19:29:13.842Z,2.66
2022-11-23T19:34:45.060Z,2.65
2022-11-23T19:40:17.084Z,2.64
2022-11-23T19:45:54.959Z,2.65
2022-11-23T19:51:26.886Z,2.64
2022-11-23T19:56:58.196Z,2.64
2022-11-23T20:02:30.396Z,2.61
2022-11-23T20:08:02.048Z,2.60
2022-11-23T20:13:33.962Z,2.60
2022-11-23T20:19:07.313Z,2.59
2022-11-23T20:24:38.831Z,2.59
2022-11-23T20:30:10.007Z,2.58
2022-11-23T20:35:41.762Z,2.56
2022-11-23T20:41:15.847Z,2.56
2022-11-23T20:47:01.659Z,2.54
2022-11-23T20:52:33.554Z,2.52
2022-11-23T20:58:04.538Z,2.54
2022-11-23T21:03:37.141Z,2.52
2022-11-23T21:09:09.699Z,2.52
2022-11-23T21:14:41.222Z,2.48
2022-11-23T21:20:12.483Z,2.44
2022-11-23T21:25:43.851Z,2.40
2022-11-23T21:31:17.893Z,2.33
2022-11-23T21:36:49.366Z,2.28
2022-11-23T21:42:20.440Z,2.24
2022-11-23T21:47:54.713Z,2.20
2022-11-23T21:53:26.014Z,2.14
2022-11-23T21:58:57.662Z,2.11
2022-11-23T22:04:28.464Z,2.13
2022-11-23T22:09:59.742Z,2.12
2022-11-23T22:15:31.833Z,2.10
2022-11-23T22:21:06.268Z,2.09
2022-11-23T22:26:37.446Z,2.10
2022-11-23T22:32:08.881Z,2.08
2022-11-23T22:37:40.353Z,2.06
2022-11-23T22:43:11.385Z,2.06
2022-11-23T22:48:44.444Z,2.05
2022-11-23T22:54:15.857Z,2.02
2022-11-23T22:59:47.490Z,2.02
2022-11-23T23:05:19.900Z,2.04
2022-11-23T23:10:51.616Z,2.05
2022-11-23T23:16:23.295Z,2.04
2022-11-23T23:21:54.526Z,1.99
2022-11-23T23:27:25.689Z,2.00
2022-11-23T23:33:00.191Z,2.00
2022-11-23T23:38:31.990Z,2.00
2022-11-23T23:44:03.693Z,1.97
2022-11-23T23:49:34.926Z,1.98
2022-11-23T23:55:07.076Z,1.94
